Time,TemperatureF,DewpointF,PressureIn,WindDirection,WindDirectionDegrees,WindSpeedMPH,WindSpeedGustMPH,Humidity,HourlyPrecipIn,Conditions,Clouds,dailyrainin,SolarRadiationWatts/m^2,SoftwareType,DateUTC
2013-01-20 00:00:00,63.5,61.1,30.02,NW,324,1.0,1.0,92,0.00,,,0.00,0,Wunderground v.1.15,2013-01-20 10:00:00,
2013-01-20 00:10:00,63.0,60.9,30.02,NW,324,2.0,2.0,93,0.00,,,0.00,0,Wunderground v.1.15,2013-01-20 10:10:00,
2013-01-20 00:15:00,62.9,61.1,30.02,NW,324,3.0,4.0,94,0.00,,,0.00,0,Wunderground v.1.15,2013-01-20 10:15:00,
2013-01-20 00:20:00,62.9,61.1,30.02,NW,324,2.0,2.0,94,0.00,,,0.00,0,Wunderground v.1.15,2013-01-20 10:20:00,
2013-01-20 00:25:00,62.9,61.4,30.01,NW,324,2.0,3.0,95,0.00,,,0.00,0,Wunderground v.1.15,2013-01-20 10:25:00,
2013-01-20 00:30:00,63.0,61.5,30.01,NW,324,2.0,2.0,95,0.00,,,0.00,0,Wunderground v.1.15,2013-01-20 10:30:00,
2013-01-20 00:35:00,63.2,61.4,30.01,NW,324,2.0,3.0,94,0.00,,,0.00,0,Wunderground v.1.15,2013-01-20 10:35:00,
2013-01-20 00:40:00,63.2,61.4,30.01,NW,325,3.0,3.0,94,0.00,,,0.00,0,Wunderground v.1.15,2013-01-20 10:40:00,
2013-01-20 00:45:00,63.3,61.5,30.01,NW,324,3.0,3.0,94,0.00,,,0.00,0,Wunderground v.1.15,2013-01-20 10:45:00,
2013-01-20 00:50:00,63.2,61.4,30.01,NW,325,2.0,3.0,94,0.00,,,0.00,0,Wunderground v.1.15,2013-01-20 10:50:00,
2013-01-20 00:55:00,63.1,61.3,30.01,NW,324,2.0,3.0,94,0.00,,,0.00,0,Wunderground v.1.15,2013-01-20 10:55:00,
2013-01-20 01:00:00,63.3,61.5,30.01,NW,324,2.0,2.0,94,0.00,,,0.00,0,Wunderground v.1.15,2013-01-20 11:00:00,
2013-01-20 01:10:00,63.4,61.6,30.01,NW,324,1.0,1.0,94,0.00,,,0.00,0,Wunderground v.1.15,2013-01-20 11:10:00,
2013-01-20 01:15:00,63.5,61.7,30.01,NW,325,1.0,3.0,94,0.00,,,0.00,0,Wunderground v.1.15,2013-01-20 11:15:00,
2013-01-20 01:20:00,63.7,61.9,30.01,NW,325,2.0,2.0,94,0.00,,,0.00,0,Wunderground v.1.15,2013-01-20 11:20:00,
2013-01-20 01:25:00,63.9,61.8,30.00,NW,325,2.0,2.0,93,0.00,,,0.00,0,Wunderground v.1.15,2013-01-20 11:25:00,
2013-01-20 01:30:00,64.0,61.9,30.00,NW,325,2.0,2.0,93,0.00,,,0.00,0,Wunderground v.1.15,2013-01-20 11:30:00,
2013-01-20 01:35:00,64.0,61.9,30.00,NW,324,2.0,3.0,93,0.00,,,0.00,0,Wunderground v.1.15,2013-01-20 11:35:00,
2013-01-20 01:45:00,63.9,61.8,30.00,NW,324,3.0,4.0,93,0.00,,,0.00,0,Wunderground v.1.15,2013-01-20 11:45:00,
2013-01-20 01:50:00,63.7,61.6,30.00,NW,324,2.0,2.0,93,0.00,,,0.00,0,Wunderground v.1.15,2013-01-20 11:50:00,
2013-01-20 01:55:00,63.6,61.5,30.00,NW,324,2.0,4.0,93,0.00,,,0.00,0,Wunderground v.1.15,2013-01-20 11:55:00,
2013-01-20 02:00:00,63.4,61.3,30.00,NW,324,2.0,2.0,93,0.00,,,0.00,0,Wunderground v.1.15,2013-01-20 12:00:00,
2013-01-20 02:10:00,63.1,60.7,30.00,NW,325,2.0,2.0,92,0.00,,,0.00,0,Wunderground v.1.15,2013-01-20 12:10:00,
2013-01-20 02:15:00,63.1,60.7,30.00,NW,324,2.0,2.0,92,0.00,,,0.00,0,Wunderground v.1.15,2013-01-20 12:15:00,
2013-01-20 02:20:00,63.2,60.8,30.00,NW,324,2.0,2.0,92,0.00,,,0.00,0,Wunderground v.1.15,2013-01-20 12:20:00,
2013-01-20 02:30:00,63.3,60.9,30.00,NW,324,2.0,4.0,92,0.00,,,0.00,0,Wunderground v.1.15,2013-01-20 12:30:00,
2013-01-20 02:35:00,63.5,61.1,30.00,NW,324,1.0,4.0,92,0.00,,,0.00,0,Wunderground v.1.15,2013-01-20 12:35:00,
2013-01-20 02:40:00,63.6,60.9,30.00,NW,324,2.0,2.0,91,0.00,,,0.00,0,Wunderground v.1.15,2013-01-20 12:40:00,
2013-01-20 02:45:00,63.7,61.0,30.00,NW,324,2.0,2.0,91,0.00,,,0.00,0,Wunderground v.1.15,2013-01-20 12:45:00,
2013-01-20 02:50:00,63.9,60.9,29.99,NW,324,1.0,3.0,90,0.00,,,0.00,0,Wunderground v.1.15,2013-01-20 12:50:00,
2013-01-20 03:00:00,64.0,61.0,29.99,NW,324,1.0,2.0,90,0.00,,,0.00,0,Wunderground v.1.15,2013-01-20 13:00:00,
2013-01-20 03:10:00,64.1,61.1,29.99,NW,324,2.0,2.0,90,0.00,,,0.00,0,Wunderground v.1.15,2013-01-20 13:10:00,
2013-01-20 03:15:00,64.3,61.3,29.99,NW,324,2.0,2.0,90,0.00,,,0.00,0,Wunderground v.1.15,2013-01-20 13:15:00,
2013-01-20 03:20:00,64.5,61.5,29.99,NW,324,2.0,3.0,90,0.00,,,0.00,0,Wunderground v.1.15,2013-01-20 13:20:00,
2013-01-20 03:25:00,64.5,61.5,29.99,NW,324,2.0,3.0,90,0.00,,,0.00,0,Wunderground v.1.15,2013-01-20 13:25:00,
2013-01-20 03:30:00,64.5,61.5,29.99,NW,324,1.0,2.0,90,0.00,,,0.00,0,Wunderground v.1.15,2013-01-20 13:30:00,
2013-01-20 03:35:00,64.4,61.4,29.99,NW,324,1.0,2.0,90,0.00,,,0.00,0,Wunderground v.1.15,2013-01-20 13:35:00,
2013-01-20 03:40:00,64.2,61.2,29.99,NW,324,2.0,2.0,90,0.00,,,0.00,0,Wunderground v.1.15,2013-01-20 13:40:00,
2013-01-20 03:50:00,63.7,60.4,29.99,NW,324,2.0,3.0,89,0.00,,,0.00,0,Wunderground v.1.15,2013-01-20 13:50:00,
2013-01-20 03:55:00,63.6,60.3,29.99,NW,324,2.0,3.0,89,0.00,,,0.00,0,Wunderground v.1.15,2013-01-20 13:55:00,
2013-01-20 04:00:00,63.5,59.9,29.98,NW,324,2.0,2.0,88,0.00,,,0.00,0,Wunderground v.1.15,2013-01-20 14:00:00,
2013-01-20 04:10:00,63.2,59.6,29.99,NW,324,2.0,2.0,88,0.00,,,0.00,0,Wunderground v.1.15,2013-01-20 14:10:00,
2013-01-20 04:15:00,63.0,59.4,29.98,NW,324,1.0,2.0,88,0.00,,,0.00,0,Wunderground v.1.15,2013-01-20 14:15:00,
2013-01-20 04:20:00,62.8,59.5,29.98,NW,324,2.0,2.0,89,0.00,,,0.00,0,Wunderground v.1.15,2013-01-20 14:20:00,
2013-01-20 04:30:00,62.4,59.1,29.98,NW,325,2.0,3.0,89,0.00,,,0.00,0,Wunderground v.1.15,2013-01-20 14:30:00,
2013-01-20 04:35:00,62.3,59.0,29.99,NW,325,3.0,3.0,89,0.00,,,0.00,0,Wunderground v.1.15,2013-01-20 14:35:00,
2013-01-20 04:40:00,62.0,58.7,29.99,NW,325,3.0,3.0,89,0.00,,,0.00,0,Wunderground v.1.15,2013-01-20 14:40:00,
2013-01-20 04:45:00,61.9,58.9,29.99,NW,325,3.0,4.0,90,0.00,,,0.00,0,Wunderground v.1.15,2013-01-20 14:45:00,
2013-01-20 04:50:00,61.8,58.5,29.99,NW,324,3.0,4.0,89,0.00,,,0.00,0,Wunderground v.1.15,2013-01-20 14:50:00,
2013-01-20 04:55:00,62.0,58.7,29.99,NW,324,3.0,4.0,89,0.00,,,0.00,0,Wunderground v.1.15,2013-01-20 14:55:00,
2013-01-20 05:00:00,61.9,58.6,29.99,NW,324,3.0,3.0,89,0.00,,,0.00,0,Wunderground v.1.15,2013-01-20 15:00:00,
2013-01-20 05:10:00,62.0,58.7,30.00,NW,325,3.0,3.0,89,0.00,,,0.00,0,Wunderground v.1.15,2013-01-20 15:10:00,
2013-01-20 05:15:00,61.9,58.6,30.00,NW,325,3.0,5.0,89,0.00,,,0.00,0,Wunderground v.1.15,2013-01-20 15:15:00,
2013-01-20 05:20:00,61.9,58.6,30.00,NW,325,3.0,6.0,89,0.00,,,0.00,0,Wunderground v.1.15,2013-01-20 15:20:00,
2013-01-20 05:25:00,62.0,58.7,30.00,NW,325,4.0,6.0,89,0.00,,,0.00,0,Wunderground v.1.15,2013-01-20 15:25:00,
2013-01-20 05:30:00,62.1,58.8,30.00,NW,325,4.0,4.0,89,0.00,,,0.00,0,Wunderground v.1.15,2013-01-20 15:30:00,
2013-01-20 05:35:00,62.1,58.8,30.00,NW,325,4.0,4.0,89,0.00,,,0.00,0,Wunderground v.1.15,2013-01-20 15:35:00,
2013-01-20 05:40:00,62.1,59.1,30.00,NW,325,3.0,6.0,90,0.00,,,0.00,0,Wunderground v.1.15,2013-01-20 15:40:00,
2013-01-20 05:45:00,62.2,59.2,30.00,NW,325,3.0,6.0,90,0.00,,,0.00,0,Wunderground v.1.15,2013-01-20 15:45:00,
2013-01-20 05:55:00,62.2,59.5,30.00,NW,325,3.0,3.0,91,0.00,,,0.00,0,Wunderground v.1.15,2013-01-20 15:55:00,
2013-01-20 06:00:00,62.1,59.4,30.01,NW,325,3.0,4.0,91,0.00,,,0.00,0,Wunderground v.1.15,2013-01-20 16:00:00,
2013-01-20 06:10:00,62.1,59.7,30.01,NW,324,2.0,2.0,92,0.00,,,0.00,0,Wunderground v.1.15,2013-01-20 16:10:00,
2013-01-20 06:15:00,62.0,59.6,30.01,NW,324,3.0,3.0,92,0.00,,,0.00,0,Wunderground v.1.15,2013-01-20 16:15:00,
2013-01-20 06:25:00,61.8,59.5,30.02,NW,325,3.0,4.0,92,0.00,,,0.00,0,Wunderground v.1.15,2013-01-20 16:25:00,
2013-01-20 06:30:00,61.7,59.7,30.02,NW,325,3.0,3.0,93,0.00,,,0.00,0,Wunderground v.1.15,2013-01-20 16:30:00,
2013-01-20 06:35:00,61.6,59.6,30.02,NW,324,2.0,4.0,93,0.00,,,0.00,0,Wunderground v.1.15,2013-01-20 16:35:00,
2013-01-20 06:45:00,61.4,59.1,30.02,NW,324,2.0,2.0,92,0.00,,,0.00,0,Wunderground v.1.15,2013-01-20 16:45:00,
2013-01-20 06:50:00,61.3,59.0,30.02,NW,324,3.0,3.0,92,0.00,,,0.00,0,Wunderground v.1.15,2013-01-20 16:50:00,
2013-01-20 06:55:00,61.3,58.7,30.03,NW,325,4.0,5.0,91,0.00,,,0.00,0,Wunderground v.1.15,2013-01-20 16:55:00,
2013-01-20 07:00:00,61.4,58.4,30.03,NW,325,4.0,4.0,90,0.00,,,0.00,5,Wunderground v.1.15,2013-01-20 17:00:00,
2013-01-20 07:10:00,61.2,58.2,30.03,NW,325,2.0,2.0,90,0.00,,,0.00,12,Wunderground v.1.15,2013-01-20 17:10:00,
2013-01-20 07:15:00,61.1,58.1,30.03,NW,325,2.0,2.0,90,0.00,,,0.00,18,Wunderground v.1.15,2013-01-20 17:15:00,
2013-01-20 07:20:00,60.9,58.3,30.03,NW,325,1.0,2.0,91,0.00,,,0.00,25,Wunderground v.1.15,2013-01-20 17:20:00,
2013-01-20 07:25:00,60.9,58.3,30.03,NW,325,2.0,2.0,91,0.00,,,0.00,35,Wunderground v.1.15,2013-01-20 17:25:00,
2013-01-20 07:30:00,61.1,58.5,30.03,NW,325,3.0,4.0,91,0.00,,,0.00,47,Wunderground v.1.15,2013-01-20 17:30:00,
2013-01-20 07:35:00,61.5,58.8,30.03,NW,325,2.0,4.0,91,0.00,,,0.00,54,Wunderground v.1.15,2013-01-20 17:35:00,
2013-01-20 07:40:00,61.8,58.8,30.03,NW,325,2.0,3.0,90,0.00,,,0.00,70,Wunderground v.1.15,2013-01-20 17:40:00,
2013-01-20 07:45:00,62.1,59.4,30.04,NW,325,2.0,3.0,91,0.00,,,0.00,90,Wunderground v.1.15,2013-01-20 17:45:00,
2013-01-20 07:55:00,62.9,60.2,30.04,NW,325,0.0,1.0,91,0.00,,,0.00,123,Wunderground v.1.15,2013-01-20 17:55:00,
2013-01-20 08:00:00,63.4,60.7,30.05,NW,325,0.0,0.0,91,0.00,,,0.00,149,Wunderground v.1.15,2013-01-20 18:00:00,
2013-01-20 08:10:00,64.7,62.3,30.05,NW,325,0.0,0.0,92,0.00,,,0.00,190,Wunderground v.1.15,2013-01-20 18:10:00,
2013-01-20 08:15:00,65.3,62.9,30.05,NW,325,0.0,0.0,92,0.00,,,0.00,211,Wunderground v.1.15,2013-01-20 18:15:00,
2013-01-20 08:20:00,66.1,63.7,30.05,NW,325,0.0,0.0,92,0.00,,,0.00,230,Wunderground v.1.15,2013-01-20 18:20:00,
2013-01-20 08:25:00,66.8,64.1,30.05,NW,325,0.0,0.0,91,0.00,,,0.00,248,Wunderground v.1.15,2013-01-20 18:25:00,
2013-01-20 08:30:00,67.5,64.5,30.05,NW,325,0.0,4.0,90,0.00,,,0.00,267,Wunderground v.1.15,2013-01-20 18:30:00,
2013-01-20 08:35:00,68.0,64.6,30.05,NW,325,1.0,4.0,89,0.00,,,0.00,287,Wunderground v.1.15,2013-01-20 18:35:00,
2013-01-20 08:40:00,68.4,65.0,30.05,NW,325,1.0,1.0,89,0.00,,,0.00,308,Wunderground v.1.15,2013-01-20 18:40:00,
2013-01-20 08:45:00,68.9,65.2,30.05,NW,325,0.0,1.0,88,0.00,,,0.00,332,Wunderground v.1.15,2013-01-20 18:45:00,
2013-01-20 08:55:00,69.7,65.3,30.05,SSW,202,2.0,3.0,86,0.00,,,0.00,374,Wunderground v.1.15,2013-01-20 18:55:00,
2013-01-20 09:00:00,70.0,65.6,30.06,SSW,202,2.0,2.0,86,0.00,,,0.00,390,Wunderground v.1.15,2013-01-20 19:00:00,
2013-01-20 09:10:00,70.5,65.8,30.06,SSW,202,1.0,2.0,85,0.00,,,0.00,438,Wunderground v.1.15,2013-01-20 19:10:00,
2013-01-20 09:15:00,70.7,65.6,30.06,SSW,213,2.0,4.0,84,0.00,,,0.00,455,Wunderground v.1.15,2013-01-20 19:15:00,
2013-01-20 09:20:00,70.4,65.3,30.06,SSW,213,3.0,4.0,84,0.00,,,0.00,130,Wunderground v.1.15,2013-01-20 19:20:00,
2013-01-20 09:25:00,70.4,65.7,30.06,SSW,213,3.0,4.0,85,0.00,,,0.00,515,Wunderground v.1.15,2013-01-20 19:25:00,
2013-01-20 09:30:00,70.6,65.5,30.06,SSW,210,2.0,3.0,84,0.00,,,0.00,413,Wunderground v.1.15,2013-01-20 19:30:00,
2013-01-20 09:35:00,70.4,65.3,30.07,SSE,163,3.0,4.0,84,0.00,,,0.00,123,Wunderground v.1.15,2013-01-20 19:35:00,
2013-01-20 09:45:00,70.7,65.6,30.07,SSW,204,3.0,7.0,84,0.00,,,0.00,624,Wunderground v.1.15,2013-01-20 19:45:00,
2013-01-20 09:50:00,70.5,65.4,30.07,SSW,203,4.0,4.0,84,0.00,,,0.00,629,Wunderground v.1.15,2013-01-20 19:50:00,
2013-01-20 09:55:00,70.6,65.5,30.07,SW,218,3.0,4.0,84,0.00,,,0.00,612,Wunderground v.1.15,2013-01-20 19:55:00,
2013-01-20 10:00:00,70.8,65.7,30.07,SE,136,3.0,4.0,84,0.00,,,0.00,626,Wunderground v.1.15,2013-01-20 20:00:00,
2013-01-20 10:10:00,71.2,66.1,30.07,SE,136,3.0,3.0,84,0.00,,,0.00,663,Wunderground v.1.15,2013-01-20 20:10:00,
2013-01-20 10:15:00,72.0,66.6,30.07,South,171,2.0,3.0,83,0.00,,,0.00,686,Wunderground v.1.15,2013-01-20 20:15:00,
2013-01-20 10:20:00,71.8,65.7,30.06,SSE,153,3.0,3.0,81,0.00,,,0.00,142,Wunderground v.1.15,2013-01-20 20:20:00,
2013-01-20 10:25:00,71.6,65.8,30.06,SSE,154,4.0,4.0,82,0.00,,,0.00,698,Wunderground v.1.15,2013-01-20 20:25:00,
2013-01-20 10:30:00,71.8,66.4,30.06,South,188,4.0,5.0,83,0.00,,,0.00,719,Wunderground v.1.15,2013-01-20 20:30:00,
2013-01-20 10:35:00,72.0,66.2,30.07,SSW,200,4.0,5.0,82,0.00,,,0.00,761,Wunderground v.1.15,2013-01-20 20:35:00,
2013-01-20 10:40:00,71.7,66.3,30.06,SSE,163,3.0,4.0,83,0.00,,,0.00,239,Wunderground v.1.15,2013-01-20 20:40:00,
2013-01-20 10:45:00,72.0,66.9,30.07,South,180,3.0,4.0,84,0.00,,,0.00,309,Wunderground v.1.15,2013-01-20 20:45:00,
2013-01-20 10:50:00,72.2,66.7,30.06,South,184,4.0,4.0,83,0.00,,,0.00,863,Wunderground v.1.15,2013-01-20 20:50:00,
2013-01-20 10:55:00,72.5,67.0,30.07,SSE,159,4.0,4.0,83,0.00,,,0.00,916,Wunderground v.1.15,2013-01-20 20:55:00,
2013-01-20 11:00:00,72.6,67.1,30.07,SSW,195,6.0,6.0,83,0.00,,,0.00,946,Wunderground v.1.15,2013-01-20 21:00:00,
2013-01-20 11:10:00,72.3,66.8,30.06,SSE,148,4.0,6.0,83,0.00,,,0.00,911,Wunderground v.1.15,2013-01-20 21:10:00,
2013-01-20 11:15:00,72.4,66.9,30.06,SSW,206,4.0,6.0,83,0.00,,,0.00,468,Wunderground v.1.15,2013-01-20 21:15:00,
2013-01-20 11:20:00,72.3,66.8,30.06,SE,146,5.0,12.0,83,0.00,,,0.00,995,Wunderground v.1.15,2013-01-20 21:20:00,
2013-01-20 11:25:00,72.3,66.8,30.06,South,191,5.0,12.0,83,0.00,,,0.00,995,Wunderground v.1.15,2013-01-20 21:25:00,
2013-01-20 11:35:00,72.3,66.8,30.05,SSE,161,2.0,4.0,83,0.00,,,0.00,455,Wunderground v.1.15,2013-01-20 21:35:00,
2013-01-20 11:40:00,72.5,67.4,30.05,SSW,209,3.0,7.0,84,0.00,,,0.00,967,Wunderground v.1.15,2013-01-20 21:40:00,
2013-01-20 11:45:00,72.6,67.1,30.04,SSW,207,5.0,9.0,83,0.00,,,0.00,983,Wunderground v.1.15,2013-01-20 21:45:00,
2013-01-20 11:50:00,72.9,67.4,30.04,SSE,165,5.0,5.0,83,0.00,,,0.00,951,Wunderground v.1.15,2013-01-20 21:50:00,
2013-01-20 11:55:00,72.8,67.3,30.04,South,180,5.0,5.0,83,0.00,,,0.00,387,Wunderground v.1.15,2013-01-20 21:55:00,
2013-01-20 12:00:00,72.4,66.9,30.04,SSW,209,4.0,11.0,83,0.00,,,0.00,410,Wunderground v.1.15,2013-01-20 22:00:00,
2013-01-20 12:10:00,72.3,67.2,30.03,South,183,4.0,4.0,84,0.00,,,0.00,963,Wunderground v.1.15,2013-01-20 22:10:00,
2013-01-20 12:15:00,72.9,67.8,30.03,South,178,3.0,5.0,84,0.00,,,0.00,1000,Wunderground v.1.15,2013-01-20 22:15:00,
2013-01-20 12:20:00,73.4,67.6,30.03,SSW,205,4.0,4.0,82,0.00,,,0.00,991,Wunderground v.1.15,2013-01-20 22:20:00,
2013-01-20 12:25:00,73.3,67.5,30.03,SW,215,5.0,6.0,82,0.00,,,0.00,951,Wunderground v.1.15,2013-01-20 22:25:00,
2013-01-20 12:30:00,73.3,67.8,30.03,South,173,6.0,6.0,83,0.00,,,0.00,891,Wunderground v.1.15,2013-01-20 22:30:00,
2013-01-20 12:35:00,73.7,67.9,30.03,SSW,194,4.0,6.0,82,0.00,,,0.00,914,Wunderground v.1.15,2013-01-20 22:35:00,
2013-01-20 12:45:00,73.5,67.7,30.02,South,172,5.0,6.0,82,0.00,,,0.00,1016,Wunderground v.1.15,2013-01-20 22:45:00,
2013-01-20 12:55:00,73.5,67.7,30.02,SW,216,5.0,10.0,82,0.00,,,0.00,976,Wunderground v.1.15,2013-01-20 22:55:00,
2013-01-20 13:00:00,73.2,67.7,30.01,SSE,167,6.0,6.0,83,0.00,,,0.00,919,Wunderground v.1.15,2013-01-20 23:00:00,
2013-01-20 13:10:00,72.9,67.4,30.01,South,191,5.0,5.0,83,0.00,,,0.00,455,Wunderground v.1.15,2013-01-20 23:10:00,
2013-01-20 13:15:00,73.4,68.3,30.01,SSW,209,5.0,5.0,84,0.00,,,0.00,986,Wunderground v.1.15,2013-01-20 23:15:00,
2013-01-20 13:20:00,73.2,67.7,30.00,SSE,153,5.0,10.0,83,0.00,,,0.00,1063,Wunderground v.1.15,2013-01-20 23:20:00,
2013-01-20 13:30:00,73.1,67.3,30.00,South,183,6.0,6.0,82,0.00,,,0.00,1034,Wunderground v.1.15,2013-01-20 23:30:00,
2013-01-20 13:35:00,72.5,67.0,30.00,SW,217,7.0,7.0,83,0.00,,,0.00,439,Wunderground v.1.15,2013-01-20 23:35:00,
2013-01-20 13:40:00,72.4,67.3,30.00,South,186,6.0,6.0,84,0.00,,,0.00,485,Wunderground v.1.15,2013-01-20 23:40:00,
2013-01-20 13:45:00,72.6,67.5,30.00,SW,223,5.0,6.0,84,0.00,,,0.00,946,Wunderground v.1.15,2013-01-20 23:45:00,
2013-01-20 13:50:00,72.9,67.8,29.99,ESE,115,4.0,4.0,84,0.00,,,0.00,856,Wunderground v.1.15,2013-01-20 23:50:00,
2013-01-20 14:00:00,73.0,67.2,29.98,SE,131,6.0,10.0,82,0.00,,,0.00,795,Wunderground v.1.15,2013-01-21 00:00:00,
2013-01-20 14:10:00,72.9,67.8,29.99,SSE,165,5.0,5.0,84,0.00,,,0.00,768,Wunderground v.1.15,2013-01-21 00:10:00,
2013-01-20 14:15:00,73.1,68.0,29.99,South,181,5.0,7.0,84,0.00,,,0.00,765,Wunderground v.1.15,2013-01-21 00:15:00,
2013-01-20 14:20:00,73.1,67.6,29.99,SW,217,5.0,11.0,83,0.00,,,0.00,733,Wunderground v.1.15,2013-01-21 00:20:00,
2013-01-20 14:25:00,72.8,67.7,29.99,SSW,194,5.0,11.0,84,0.00,,,0.00,835,Wunderground v.1.15,2013-01-21 00:25:00,
2013-01-20 14:30:00,73.2,67.7,29.99,SSW,209,6.0,10.0,83,0.00,,,0.00,777,Wunderground v.1.15,2013-01-21 00:30:00,
2013-01-20 14:40:00,72.7,67.6,29.99,SSE,166,5.0,5.0,84,0.00,,,0.00,573,Wunderground v.1.15,2013-01-21 00:40:00,
2013-01-20 14:45:00,72.8,67.7,29.99,South,169,3.0,5.0,84,0.00,,,0.00,715,Wunderground v.1.15,2013-01-21 00:45:00,
2013-01-20 14:50:00,72.7,67.2,29.99,South,171,4.0,5.0,83,0.00,,,0.00,369,Wunderground v.1.15,2013-01-21 00:50:00,
2013-01-20 14:55:00,72.9,68.1,29.98,South,180,4.0,7.0,85,0.00,,,0.00,269,Wunderground v.1.15,2013-01-21 00:55:00,
2013-01-20 15:00:00,72.9,67.8,29.98,SE,146,3.0,10.0,84,0.00,,,0.00,668,Wunderground v.1.15,2013-01-21 01:00:00,
2013-01-20 15:10:00,72.5,67.7,29.98,SE,125,4.0,6.0,85,0.00,,,0.00,564,Wunderground v.1.15,2013-01-21 01:10:00,
2013-01-20 15:20:00,72.1,67.7,29.98,South,175,4.0,4.0,86,0.00,,,0.00,207,Wunderground v.1.15,2013-01-21 01:20:00,
2013-01-20 15:25:00,71.9,67.1,29.98,SSE,151,4.0,4.0,85,0.00,,,0.00,265,Wunderground v.1.15,2013-01-21 01:25:00,
2013-01-20 15:30:00,71.7,67.3,29.98,SE,140,5.0,5.0,86,0.00,,,0.00,244,Wunderground v.1.15,2013-01-21 01:30:00,
2013-01-20 15:35:00,71.6,67.2,29.98,SSE,165,5.0,5.0,86,0.00,,,0.00,237,Wunderground v.1.15,2013-01-21 01:35:00,
2013-01-20 15:40:00,71.7,67.6,29.98,South,173,5.0,6.0,87,0.00,,,0.00,207,Wunderground v.1.15,2013-01-21 01:40:00,
2013-01-20 15:45:00,71.6,67.2,29.98,SE,138,4.0,6.0,86,0.00,,,0.00,185,Wunderground v.1.15,2013-01-21 01:45:00,
2013-01-20 15:50:00,71.5,67.4,29.99,SSE,163,3.0,4.0,87,0.00,,,0.00,155,Wunderground v.1.15,2013-01-21 01:50:00,
2013-01-20 15:55:00,71.5,67.4,29.99,SSE,149,3.0,4.0,87,0.00,,,0.00,134,Wunderground v.1.15,2013-01-21 01:55:00,
2013-01-20 16:00:00,71.4,67.3,29.99,SSE,157,4.0,4.0,87,0.00,,,0.00,127,Wunderground v.1.15,2013-01-21 02:00:00,
2013-01-20 16:10:00,71.4,67.3,29.99,ENE,57,4.0,5.0,87,0.00,,,0.00,83,Wunderground v.1.15,2013-01-21 02:10:00,
2013-01-20 16:15:00,71.3,67.2,29.99,ENE,67,5.0,5.0,87,0.00,,,0.00,79,Wunderground v.1.15,2013-01-21 02:15:00,
2013-01-20 16:20:00,71.3,67.2,29.99,ESE,111,5.0,5.0,87,0.00,,,0.00,74,Wunderground v.1.15,2013-01-21 02:20:00,
2013-01-20 16:30:00,71.4,67.7,29.99,ESE,117,3.0,3.0,88,0.00,,,0.00,49,Wunderground v.1.15,2013-01-21 02:30:00,
2013-01-20 16:35:00,71.4,67.3,29.99,ESE,111,3.0,4.0,87,0.00,,,0.00,37,Wunderground v.1.15,2013-01-21 02:35:00,
2013-01-20 16:45:00,71.2,67.1,29.99,East,86,3.0,5.0,87,0.00,,,0.00,19,Wunderground v.1.15,2013-01-21 02:45:00,
2013-01-20 16:50:00,71.1,67.4,30.00,ENE,67,4.0,4.0,88,0.00,,,0.00,16,Wunderground v.1.15,2013-01-21 02:50:00,
2013-01-20 16:55:00,71.0,67.3,30.00,East,86,3.0,5.0,88,0.00,,,0.00,14,Wunderground v.1.15,2013-01-21 02:55:00,
2013-01-20 17:00:00,71.0,67.6,30.00,ESE,108,3.0,4.0,89,0.00,,,0.00,11,Wunderground v.1.15,2013-01-21 03:00:00,
2013-01-20 17:10:00,70.7,67.3,30.00,East,80,4.0,4.0,89,0.00,,,0.00,9,Wunderground v.1.15,2013-01-21 03:10:00,
2013-01-20 17:15:00,70.6,67.2,30.00,ENE,71,4.0,5.0,89,0.00,,,0.00,9,Wunderground v.1.15,2013-01-21 03:15:00,
2013-01-20 17:20:00,70.5,67.1,30.00,East,91,4.0,4.0,89,0.00,,,0.00,7,Wunderground v.1.15,2013-01-21 03:20:00,
2013-01-20 17:25:00,70.5,67.4,30.00,East,82,3.0,4.0,90,0.00,,,0.00,7,Wunderground v.1.15,2013-01-21 03:25:00,
2013-01-20 17:30:00,70.4,67.3,30.00,NNE,28,3.0,3.0,90,0.00,,,0.00,7,Wunderground v.1.15,2013-01-21 03:30:00,
2013-01-20 17:35:00,70.4,67.3,30.00,NE,47,2.0,3.0,90,0.00,,,0.00,5,Wunderground v.1.15,2013-01-21 03:35:00,
2013-01-20 17:45:00,70.2,67.4,30.00,NE,48,3.0,5.0,91,0.00,,,0.00,0,Wunderground v.1.15,2013-01-21 03:45:00,
2013-01-20 17:50:00,70.0,67.3,30.00,NE,35,4.0,4.0,91,0.00,,,0.00,0,Wunderground v.1.15,2013-01-21 03:50:00,
2013-01-20 18:00:00,69.9,67.2,30.00,NE,36,3.0,3.0,91,0.00,,,0.00,0,Wunderground v.1.15,2013-01-21 04:00:00,
2013-01-20 18:10:00,69.9,67.2,30.01,NNE,24,3.0,3.0,91,0.00,,,0.00,0,Wunderground v.1.15,2013-01-21 04:10:00,
2013-01-20 18:15:00,69.9,67.5,30.01,ENE,58,3.0,4.0,92,0.00,,,0.00,0,Wunderground v.1.15,2013-01-21 04:15:00,
2013-01-20 18:20:00,69.8,67.1,30.01,NNE,24,3.0,3.0,91,0.00,,,0.00,0,Wunderground v.1.15,2013-01-21 04:20:00,
2013-01-20 18:25:00,69.8,67.4,30.02,NE,37,3.0,3.0,92,0.00,,,0.00,0,Wunderground v.1.15,2013-01-21 04:25:00,
2013-01-20 18:30:00,69.6,67.2,30.02,NNE,30,3.0,5.0,92,0.00,,,0.00,0,Wunderground v.1.15,2013-01-21 04:30:00,
2013-01-20 18:35:00,69.4,67.3,30.02,NNE,26,4.0,5.0,93,0.00,,,0.00,0,Wunderground v.1.15,2013-01-21 04:35:00,
2013-01-20 18:45:00,69.0,66.9,30.03,NNE,26,3.0,5.0,93,0.00,,,0.00,0,Wunderground v.1.15,2013-01-21 04:45:00,
2013-01-20 18:50:00,69.0,66.9,30.03,NNE,30,3.0,3.0,93,0.00,,,0.00,0,Wunderground v.1.15,2013-01-21 04:50:00,
2013-01-20 18:55:00,68.9,67.1,30.03,NNE,30,2.0,3.0,94,0.00,,,0.00,0,Wunderground v.1.15,2013-01-21 04:55:00,
2013-01-20 19:00:00,69.0,67.2,30.03,NNE,30,0.0,0.0,94,0.00,,,0.00,0,Wunderground v.1.15,2013-01-21 05:00:00,
2013-01-20 19:10:00,68.7,66.9,30.04,NNE,30,2.0,3.0,94,0.00,,,0.00,0,Wunderground v.1.15,2013-01-21 05:10:00,
2013-01-20 19:15:00,68.6,66.8,30.03,NNE,30,2.0,3.0,94,0.00,,,0.00,0,Wunderground v.1.15,2013-01-21 05:15:00,
2013-01-20 19:20:00,68.5,66.7,30.04,NNE,28,2.0,2.0,94,0.00,,,0.00,0,Wunderground v.1.15,2013-01-21 05:20:00,
2013-01-20 19:25:00,68.4,66.9,30.04,NNE,15,2.0,3.0,95,0.00,,,0.00,0,Wunderground v.1.15,2013-01-21 05:25:00,
2013-01-20 19:30:00,68.4,66.9,30.04,NNE,15,3.0,3.0,95,0.00,,,0.00,0,Wunderground v.1.15,2013-01-21 05:30:00,
2013-01-20 19:40:00,68.3,66.8,30.04,NNE,15,2.0,3.0,95,0.00,,,0.00,0,Wunderground v.1.15,2013-01-21 05:40:00,
2013-01-20 19:45:00,68.3,66.8,30.04,NNE,15,2.0,3.0,95,0.00,,,0.00,0,Wunderground v.1.15,2013-01-21 05:45:00,
2013-01-20 19:50:00,68.3,66.8,30.04,NNE,15,1.0,1.0,95,0.00,,,0.00,0,Wunderground v.1.15,2013-01-21 05:50:00,
2013-01-20 19:55:00,68.3,66.8,30.05,NNE,15,0.0,1.0,95,0.00,,,0.00,0,Wunderground v.1.15,2013-01-21 05:55:00,
2013-01-20 20:00:00,68.4,66.9,30.05,NNE,15,0.0,0.0,95,0.00,,,0.00,0,Wunderground v.1.15,2013-01-21 06:00:00,
2013-01-20 20:10:00,68.4,66.6,30.05,NNE,15,0.0,0.0,94,0.00,,,0.00,0,Wunderground v.1.15,2013-01-21 06:10:00,
2013-01-20 20:15:00,68.5,66.7,30.06,NNE,15,0.0,0.0,94,0.00,,,0.00,0,Wunderground v.1.15,2013-01-21 06:15:00,
2013-01-20 20:25:00,68.6,66.8,30.06,NNE,15,2.0,3.0,94,0.00,,,0.00,0,Wunderground v.1.15,2013-01-21 06:25:00,
2013-01-20 20:30:00,68.6,66.8,30.06,NNE,15,2.0,3.0,94,0.00,,,0.00,0,Wunderground v.1.15,2013-01-21 06:30:00,
2013-01-20 20:35:00,68.6,66.8,30.06,NNE,15,2.0,3.0,94,0.00,,,0.00,0,Wunderground v.1.15,2013-01-21 06:35:00,
2013-01-20 20:45:00,68.7,66.9,30.06,NNE,15,1.0,3.0,94,0.00,,,0.00,0,Wunderground v.1.15,2013-01-21 06:45:00,
2013-01-20 20:50:00,68.6,66.8,30.06,NNE,15,2.0,2.0,94,0.00,,,0.00,0,Wunderground v.1.15,2013-01-21 06:50:00,
2013-01-20 20:55:00,68.5,66.7,30.06,NNE,15,3.0,3.0,94,0.00,,,0.00,0,Wunderground v.1.15,2013-01-21 06:55:00,
2013-01-20 21:00:00,68.5,66.7,30.06,NNE,15,2.0,2.0,94,0.00,,,0.00,0,Wunderground v.1.15,2013-01-21 07:00:00,
2013-01-20 21:10:00,68.4,66.6,30.06,NNE,15,2.0,2.0,94,0.00,,,0.00,0,Wunderground v.1.15,2013-01-21 07:10:00,
2013-01-20 21:20:00,68.1,66.3,30.06,NNE,15,1.0,1.0,94,0.00,,,0.00,0,Wunderground v.1.15,2013-01-21 07:20:00,
2013-01-20 21:25:00,67.9,66.4,30.06,NNE,15,1.0,2.0,95,0.00,,,0.00,0,Wunderground v.1.15,2013-01-21 07:25:00,
2013-01-20 21:30:00,67.7,66.2,30.06,NNE,15,2.0,2.0,95,0.00,,,0.00,0,Wunderground v.1.15,2013-01-21 07:30:00,
2013-01-20 21:40:00,67.3,66.1,30.06,NNE,15,0.0,0.0,96,0.00,,,0.00,0,Wunderground v.1.15,2013-01-21 07:40:00,
2013-01-20 21:45:00,67.1,65.9,30.06,NNE,15,1.0,2.0,96,0.00,,,0.00,0,Wunderground v.1.15,2013-01-21 07:45:00,
2013-01-20 21:50:00,66.7,65.5,30.06,NNE,15,2.0,2.0,96,0.00,,,0.00,0,Wunderground v.1.15,2013-01-21 07:50:00,
2013-01-20 21:55:00,66.4,65.2,30.06,NNE,15,2.0,2.0,96,0.00,,,0.00,0,Wunderground v.1.15,2013-01-21 07:55:00,
2013-01-20 22:00:00,66.1,65.2,30.06,NNE,15,2.0,3.0,97,0.00,,,0.00,0,Wunderground v.1.15,2013-01-21 08:00:00,
2013-01-20 22:10:00,65.6,65.0,30.06,NNE,15,3.0,3.0,98,0.00,,,0.00,0,Wunderground v.1.15,2013-01-21 08:10:00,
2013-01-20 22:15:00,65.5,64.9,30.06,NNE,15,2.0,3.0,98,0.00,,,0.00,0,Wunderground v.1.15,2013-01-21 08:15:00,
2013-01-20 22:20:00,65.5,64.9,30.06,NNE,15,3.0,3.0,98,0.00,,,0.00,0,Wunderground v.1.15,2013-01-21 08:20:00,
2013-01-20 22:25:00,65.5,64.9,30.06,NNE,15,3.0,3.0,98,0.00,,,0.00,0,Wunderground v.1.15,2013-01-21 08:25:00,
2013-01-20 22:30:00,65.5,64.9,30.06,NNE,15,3.0,3.0,98,0.00,,,0.00,0,Wunderground v.1.15,2013-01-21 08:30:00,
2013-01-20 22:35:00,65.6,65.0,30.06,North,5,3.0,4.0,98,0.00,,,0.00,0,Wunderground v.1.15,2013-01-21 08:35:00,
2013-01-20 22:40:00,65.6,64.7,30.06,North,5,3.0,3.0,97,0.00,,,0.00,0,Wunderground v.1.15,2013-01-21 08:40:00,
2013-01-20 22:50:00,65.3,64.1,30.06,North,5,3.0,5.0,96,0.00,,,0.00,0,Wunderground v.1.15,2013-01-21 08:50:00,
2013-01-20 23:00:00,65.2,64.0,30.06,NNW,346,4.0,4.0,96,0.00,,,0.00,0,Wunderground v.1.15,2013-01-21 09:00:00,
2013-01-20 23:10:00,65.2,64.0,30.07,NNW,346,3.0,4.0,96,0.00,,,0.00,0,Wunderground v.1.15,2013-01-21 09:10:00,
2013-01-20 23:15:00,65.1,63.9,30.07,NNW,346,3.0,4.0,96,0.00,,,0.00,0,Wunderground v.1.15,2013-01-21 09:15:00,
2013-01-20 23:20:00,64.9,63.7,30.06,NNW,346,2.0,2.0,96,0.00,,,0.00,0,Wunderground v.1.15,2013-01-21 09:20:00,
2013-01-20 23:30:00,64.4,63.5,30.06,NNW,347,3.0,3.0,97,0.00,,,0.00,0,Wunderground v.1.15,2013-01-21 09:30:00,
2013-01-20 23:35:00,64.3,63.4,30.06,NNW,347,3.0,3.0,97,0.00,,,0.00,0,Wunderground v.1.15,2013-01-21 09:35:00,
2013-01-20 23:40:00,64.2,63.3,30.06,NNW,347,2.0,2.0,97,0.00,,,0.00,0,Wunderground v.1.15,2013-01-21 09:40:00,
2013-01-20 23:45:00,64.0,63.1,30.06,NNW,347,1.0,4.0,97,0.00,,,0.00,0,Wunderground v.1.15,2013-01-21 09:45:00,
2013-01-20 23:50:00,63.9,63.0,30.06,NNW,347,2.0,2.0,97,0.00,,,0.00,0,Wunderground v.1.15,2013-01-21 09:50:00,
2013-01-20 23:55:00,63.9,63.0,30.06,NNW,347,3.0,3.0,97,0.00,,,0.00,0,Wunderground v.1.15,2013-01-21 09:55:00,